Time;durP1;ratioP1;P1;durP2;ratioP2;P2;SDS_P1;SDS_P2;PMS_P1;PMS_P2;Temp;Humidity;BMP_temperature;BMP_pressure;BME280_temperature;BME280_humidity;BME280_pressure;Samples;Min_cycle;Max_cycle;Signal;HPM_P1;HPM_P2
2022/09/04 00:00:53;;;;;;;13.35;6.15;;;;;;;18.11;77.93;101418.53;5013938;28;20032;-70
2022/09/04 00:03:30;;;;;;;9.35;5.80;;;;;;;18.07;77.22;101417.28;5027269;28;20517;-69
2022/09/04 00:06:00;;;;;;;10.13;6.00;;;;;;;18.04;77.68;101418.59;5009005;28;20045;-69
2022/09/04 00:08:58;;;;;;;8.02;5.78;;;;;;;18.01;78.55;101423.75;5017981;28;20042;-69
2022/09/04 00:11:57;;;;;;;8.65;5.78;;;;;;;17.95;78.82;101424.69;5019068;28;20123;-69
2022/09/04 00:15:01;;;;;;;15.85;6.28;;;;;;;17.91;79.02;101426.22;5028773;28;20505;-68
2022/09/04 00:17:59;;;;;;;8.75;6.35;;;;;;;17.87;77.13;101431.38;5021556;28;20069;-68
2022/09/04 00:20:52;;;;;;;8.05;5.90;;;;;;;17.87;78.52;101438.88;5010590;28;20037;-68
2022/09/04 00:23:37;;;;;;;12.90;6.50;;;;;;;17.81;79.20;101435.09;5029182;28;20185;-68
2022/09/04 00:26:11;;;;;;;11.93;6.22;;;;;;;17.83;78.96;101432.09;5020129;28;20116;-69
2022/09/04 00:28:44;;;;;;;7.80;6.10;;;;;;;17.76;77.95;101431.31;5024038;28;20088;-68
2022/09/04 00:31:27;;;;;;;9.05;6.50;;;;;;;17.73;79.04;101440.94;5018915;28;20037;-68
2022/09/04 00:34:11;;;;;;;8.00;6.63;;;;;;;17.70;78.97;101440.53;5030168;28;20037;-68
2022/09/04 00:36:41;;;;;;;8.32;7.25;;;;;;;17.67;78.85;101449.31;5020984;28;20033;-68
2022/09/04 00:39:27;;;;;;;11.93;6.75;;;;;;;17.69;80.07;101453.56;5010796;28;20033;-68
2022/09/04 00:42:04;;;;;;;9.13;6.38;;;;;;;17.74;78.77;101452.84;5025048;28;20025;-68
2022/09/04 00:44:57;;;;;;;9.18;6.30;;;;;;;17.68;78.85;101451.88;5019567;28;20018;-69
2022/09/04 00:47:42;;;;;;;14.65;6.43;;;;;;;17.68;79.70;101451.88;5010637;28;20116;-69
2022/09/04 00:50:29;;;;;;;9.00;6.70;;;;;;;17.62;79.13;101452.75;5015787;28;20112;-69
2022/09/04 00:53:17;;;;;;;9.70;6.38;;;;;;;17.65;80.61;101457.00;5027248;28;20392;-69
2022/09/04 00:55:45;;;;;;;9.13;7.20;;;;;;;17.70;82.96;101452.47;5020367;28;20030;-69
2022/09/04 00:58:25;;;;;;;8.63;6.32;;;;;;;17.68;81.55;101453.78;5021988;28;20033;-69
2022/09/04 01:00:55;;;;;;;12.70;7.45;;;;;;;17.63;83.39;101448.06;5024054;28;20045;-68
2022/09/04 01:03:39;;;;;;;7.65;5.88;;;;;;;17.61;82.22;101456.59;5025448;28;20473;-69
2022/09/04 01:06:19;;;;;;;10.00;6.72;;;;;;;17.59;83.31;101460.69;5018303;28;20140;-69
2022/09/04 01:09:03;;;;;;;6.47;5.88;;;;;;;17.59;82.09;101474.53;5024372;28;20041;-69
2022/09/04 01:11:30;;;;;;;7.85;6.60;;;;;;;17.52;81.05;101473.75;5028323;28;20040;-68
2022/09/04 01:14:38;;;;;;;7.75;6.05;;;;;;;17.43;82.14;101470.44;5011145;28;20121;-68
2022/09/04 01:17:23;;;;;;;7.40;6.22;;;;;;;17.42;81.93;101474.28;5022374;28;20034;-70
2022/09/04 01:20:05;;;;;;;12.38;6.78;;;;;;;17.49;82.45;101485.28;5011837;28;20022;-69
2022/09/04 01:22:58;;;;;;;12.15;6.43;;;;;;;17.40;82.60;101481.94;5027337;28;20029;-69
2022/09/04 01:25:33;;;;;;;12.30;6.43;;;;;;;17.36;82.55;101480.69;5027794;28;20053;-69
2022/09/04 01:28:12;;;;;;;7.95;6.60;;;;;;;17.39;81.97;101482.19;5028451;28;20025;-69
2022/09/04 01:30:48;;;;;;;8.30;6.43;;;;;;;17.42;82.72;101484.50;5028342;28;20030;-69
2022/09/04 01:33:39;;;;;;;7.55;6.50;;;;;;;17.37;82.29;101487.06;5028986;28;20045;-69
2022/09/04 01:36:15;;;;;;;8.32;6.65;;;;;;;17.38;81.61;101483.22;5027110;28;20121;-69
2022/09/04 01:38:50;;;;;;;8.37;6.73;;;;;;;17.37;81.80;101489.84;5028346;28;20072;-69
2022/09/04 01:41:26;;;;;;;8.25;6.35;;;;;;;17.39;82.59;101487.75;5014331;28;20045;-68
2022/09/04 01:43:51;;;;;;;12.32;6.75;;;;;;;17.40;83.60;101486.66;5023923;28;20430;-69
2022/09/04 01:46:30;;;;;;;8.50;6.43;;;;;;;17.45;84.63;101489.59;5010681;28;20092;-69
2022/09/04 01:49:04;;;;;;;10.35;7.25;;;;;;;17.44;84.11;101493.44;5015469;28;20185;-69
2022/09/04 01:51:43;;;;;;;7.90;7.10;;;;;;;17.41;83.72;101489.22;5021754;28;20520;-69
2022/09/04 01:54:31;;;;;;;8.68;7.13;;;;;;;17.41;82.25;101491.97;5028316;28;20393;-69
2022/09/04 01:57:22;;;;;;;12.43;7.95;;;;;;;17.31;83.77;101483.28;5027254;28;20078;-69
2022/09/04 02:00:10;;;;;;;8.13;7.18;;;;;;;17.30;84.26;101491.81;5024733;28;20164;-69
2022/09/04 02:02:40;;;;;;;;;;;;;;;17.27;83.17;101489.47;5023491;28;20036;-69
2022/09/04 02:05:25;;;;;;;9.00;6.90;;;;;;;17.13;82.59;101491.50;5026052;28;20070;-69
2022/09/04 02:08:14;;;;;;;10.25;7.35;;;;;;;17.16;84.27;101496.63;5019207;28;20021;-69
2022/09/04 02:10:47;;;;;;;11.23;6.93;;;;;;;17.19;83.83;101489.78;5031210;28;20542;-69
2022/09/04 02:13:22;;;;;;;10.65;7.07;;;;;;;17.17;84.52;101492.75;5030454;28;20120;-70
2022/09/04 02:15:57;;;;;;;12.55;7.53;;;;;;;17.22;82.92;101494.84;5030107;28;20025;-69
2022/09/04 02:18:38;;;;;;;8.30;7.07;;;;;;;17.17;83.08;101495.53;5014839;28;20148;-69
2022/09/04 02:21:10;;;;;;;11.43;7.40;;;;;;;17.12;84.83;101498.13;5031380;28;20021;-70
2022/09/04 02:23:44;;;;;;;8.63;7.45;;;;;;;17.14;84.40;101506.22;5029903;28;20025;-69
2022/09/04 02:26:19;;;;;;;9.80;7.22;;;;;;;17.17;84.43;101497.44;5031898;28;20030;-69
2022/09/04 02:29:11;;;;;;;17.00;7.40;;;;;;;17.22;83.76;101514.22;5030266;28;20033;-70
2022/09/04 02:31:52;;;;;;;12.02;7.65;;;;;;;17.18;84.18;101515.78;5030065;28;20091;-69
2022/09/04 02:35:04;;;;;;;9.27;7.28;;;;;;;17.16;83.82;101504.06;5018820;28;20030;-69
2022/09/04 02:37:37;;;;;;;21.13;8.55;;;;;;;17.11;83.02;101504.75;5008361;28;20435;-69
2022/09/04 02:40:23;;;;;;;13.70;8.55;;;;;;;17.08;82.83;101515.41;5028267;28;20038;-69
2022/09/04 02:43:10;;;;;;;9.18;7.60;;;;;;;17.11;83.58;101514.94;5012775;28;20029;-69
2022/09/04 02:45:51;;;;;;;9.90;8.48;;;;;;;17.09;85.07;101528.19;5018976;28;20477;-69
2022/09/04 02:48:36;;;;;;;12.05;8.10;;;;;;;17.04;84.30;101530.75;5022538;28;20117;-69
2022/09/04 02:51:30;;;;;;;12.45;9.18;;;;;;;17.08;85.48;101534.78;5021603;28;20080;-69
2022/09/04 02:54:24;;;;;;;12.07;8.82;;;;;;;17.11;85.39;101532.44;5014667;28;20041;-68
2022/09/04 02:57:13;;;;;;;13.85;9.25;;;;;;;17.16;85.37;101532.59;5030062;28;20040;-69
2022/09/04 02:59:46;;;;;;;12.27;9.30;;;;;;;17.23;85.19;101524.25;5028381;28;20087;-69
2022/09/04 03:02:28;;;;;;;12.32;9.32;;;;;;;17.22;85.35;101530.84;5017625;28;20021;-69
2022/09/04 03:05:12;;;;;;;12.25;9.13;;;;;;;17.20;85.94;101530.22;5029750;28;20033;-69
2022/09/04 03:08:12;;;;;;;11.27;9.40;;;;;;;17.22;85.61;101530.84;5030788;28;20034;-69
2022/09/04 03:10:43;;;;;;;11.20;8.82;;;;;;;17.17;85.91;101531.53;5026823;28;20069;-69
2022/09/04 03:13:28;;;;;;;18.73;10.20;;;;;;;17.19;87.27;101531.31;5029513;28;20430;-69
2022/09/04 03:16:05;;;;;;;15.57;9.85;;;;;;;17.20;85.79;101536.63;5028582;28;20499;-69
2022/09/04 03:19:01;;;;;;;10.65;8.95;;;;;;;17.15;84.98;101544.75;5031496;28;20021;-69
2022/09/04 03:21:55;;;;;;;12.75;9.50;;;;;;;17.09;86.54;101542.88;5029455;28;20507;-69
2022/09/04 03:24:59;;;;;;;9.77;8.77;;;;;;;17.03;85.42;101546.50;5025223;28;20520;-69
2022/09/04 03:27:25;;;;;;;12.63;9.25;;;;;;;17.01;85.30;101542.28;5027347;28;20025;-69
2022/09/04 03:30:08;;;;;;;11.32;9.43;;;;;;;16.97;85.32;101546.56;5028461;28;20033;-69
2022/09/04 03:33:04;;;;;;;14.05;9.45;;;;;;;16.94;85.58;101545.09;5021411;28;20068;-68
2022/09/04 03:35:54;;;;;;;13.55;10.38;;;;;;;16.91;86.74;101545.53;5014834;28;20109;-69
2022/09/04 03:38:37;;;;;;;12.75;10.60;;;;;;;16.92;86.02;101554.69;5021137;28;20034;-69
2022/09/04 03:41:06;;;;;;;11.05;9.68;;;;;;;16.96;87.51;101556.78;5020579;28;20029;-69
2022/09/04 03:43:34;;;;;;;15.38;10.40;;;;;;;16.92;86.15;101558.28;5030368;28;20025;-69
2022/09/04 03:46:17;;;;;;;12.95;10.85;;;;;;;16.97;87.01;101552.94;5023583;28;20115;-69
2022/09/04 03:49:08;;;;;;;14.40;11.55;;;;;;;17.04;86.38;101552.91;5030043;28;20393;-69
2022/09/04 03:51:41;;;;;;;15.75;11.77;;;;;;;17.08;86.44;101559.72;5027738;28;20423;-69
2022/09/04 03:54:27;;;;;;;22.50;12.05;;;;;;;17.05;87.08;101563.78;5030246;28;20531;-69
2022/09/04 03:57:18;;;;;;;13.68;11.18;;;;;;;17.01;86.46;101564.41;5030022;28;20026;-69
2022/09/04 04:00:09;;;;;;;13.68;10.32;;;;;;;16.88;86.08;101565.38;5020045;28;20037;-68
2022/09/04 04:03:02;;;;;;;12.50;10.50;;;;;;;16.87;86.86;101568.34;5028947;28;20033;-69
2022/09/04 04:05:32;;;;;;;17.17;11.45;;;;;;;16.92;86.60;101569.38;5030172;28;20079;-69
2022/09/04 04:08:16;;;;;;;13.18;11.57;;;;;;;16.74;87.52;101560.94;5031014;28;20402;-69
2022/09/04 04:11:06;;;;;;;15.60;11.77;;;;;;;16.67;86.41;101573.13;5030745;28;20520;-69
2022/09/04 04:13:57;;;;;;;16.20;10.35;;;;;;;16.66;86.52;101565.88;5028736;28;20030;-69
2022/09/04 04:16:41;;;;;;;16.48;9.95;;;;;;;16.60;85.11;101575.06;5029686;28;20045;-69
2022/09/04 04:19:15;;;;;;;13.38;10.55;;;;;;;16.61;87.21;101574.84;5028911;28;20040;-69
2022/09/04 04:22:02;;;;;;;18.58;10.77;;;;;;;16.58;87.30;101582.72;5030564;28;20383;-69
2022/09/04 04:24:37;;;;;;;14.70;10.95;;;;;;;16.48;86.85;101582.34;5021178;28;20033;-69
2022/09/04 04:27:19;;;;;;;17.42;11.23;;;;;;;16.54;87.72;101587.00;5017255;28;20489;-68
2022/09/04 04:30:01;;;;;;;13.52;10.70;;;;;;;16.63;87.96;101591.22;5011417;28;20121;-69
2022/09/04 04:32:26;;;;;;;16.88;11.40;;;;;;;16.61;87.19;101587.81;5028778;28;20041;-69
2022/09/04 04:35:36;;;;;;;13.90;11.20;;;;;;;16.65;88.03;101595.47;5030470;28;20034;-69
2022/09/04 04:38:32;;;;;;;15.00;11.43;;;;;;;16.62;88.30;101587.63;5012652;28;20276;-69
2022/09/04 04:41:15;;;;;;;15.07;11.45;;;;;;;16.62;89.30;101584.00;5011211;28;20045;-69
2022/09/04 04:43:43;;;;;;;15.45;12.43;;;;;;;16.60;88.32;101591.66;5010600;28;20034;-69
2022/09/04 04:46:15;;;;;;;14.73;12.10;;;;;;;16.52;88.84;101594.66;5022299;28;20405;-69
2022/09/04 04:48:59;;;;;;;17.85;11.77;;;;;;;16.48;88.19;101597.00;5016634;28;20088;-69
2022/09/04 04:51:47;;;;;;;16.88;11.93;;;;;;;16.49;88.80;101603.41;5025260;28;20038;-69
2022/09/04 04:54:25;;;;;;;21.17;13.68;;;;;;;16.45;89.23;101602.13;5029174;28;20029;-69
2022/09/04 04:57:04;;;;;;;14.00;11.55;;;;;;;16.47;87.50;101600.00;5027688;28;20048;-69
2022/09/04 04:59:53;;;;;;;12.70;10.90;;;;;;;16.40;86.60;101613.84;5012387;28;20026;-69
2022/09/04 05:02:34;;;;;;;14.25;11.20;;;;;;;16.39;87.19;101614.91;5022391;28;20101;-69
2022/09/04 05:05:17;;;;;;;16.40;12.52;;;;;;;16.43;88.36;101620.88;5023074;28;20065;-69
2022/09/04 05:08:08;;;;;;;12.77;11.43;;;;;;;16.38;86.50;101621.47;5023020;28;20059;-69
2022/09/04 05:10:44;;;;;;;18.13;13.18;;;;;;;16.46;88.69;101623.19;5012267;28;20037;-69
2022/09/04 05:13:21;;;;;;;20.63;13.05;;;;;;;16.43;88.10;101631.94;5016025;28;20041;-69
2022/09/04 05:15:46;;;;;;;;;;;;;;;16.41;88.29;101631.28;5025135;28;20109;-69
2022/09/04 05:18:32;;;;;;;14.33;12.10;;;;;;;16.51;88.34;101634.44;5029173;28;19991;-67
2022/09/04 05:21:04;;;;;;;15.70;12.73;;;;;;;16.54;89.37;101636.81;5024701;28;20119;-68
2022/09/04 05:23:43;;;;;;;13.70;11.98;;;;;;;16.54;88.54;101645.94;5028660;28;20034;-68
2022/09/04 05:26:33;;;;;;;24.20;13.27;;;;;;;16.60;88.41;101647.00;5027255;28;20161;-68
2022/09/04 05:29:20;;;;;;;22.83;12.20;;;;;;;16.61;88.95;101651.44;5020045;28;20116;-69
2022/09/04 05:31:52;;;;;;;20.50;13.83;;;;;;;16.66;88.63;101646.13;5022210;28;20025;-69
2022/09/04 05:34:46;;;;;;;17.67;13.75;;;;;;;16.65;88.14;101658.25;5027952;28;20033;-69
2022/09/04 05:37:24;;;;;;;15.63;12.68;;;;;;;16.70;89.64;101661.22;5020075;28;20355;-70
2022/09/04 05:40:14;;;;;;;17.55;13.93;;;;;;;16.76;89.93;101655.66;5026950;28;20027;-69
2022/09/04 05:42:58;;;;;;;18.38;13.75;;;;;;;16.74;89.03;101657.81;5024930;28;20112;-69
2022/09/04 05:45:32;;;;;;;15.32;13.30;;;;;;;16.77;88.59;101667.59;5027083;28;20445;-69
2022/09/04 05:48:23;;;;;;;24.83;13.55;;;;;;;16.86;88.75;101677.34;5031700;28;20052;-69
2022/09/04 05:51:17;;;;;;;18.77;13.38;;;;;;;16.86;88.73;101675.41;5030094;28;20063;-69
2022/09/04 05:53:55;;;;;;;19.33;13.45;;;;;;;16.96;88.36;101678.59;5023252;28;20033;-69
2022/09/04 05:56:58;;;;;;;18.42;13.90;;;;;;;17.07;89.86;101679.84;5029858;28;20052;-68
2022/09/04 05:59:35;;;;;;;24.95;14.57;;;;;;;17.15;89.08;101685.97;5031388;28;20539;-69
2022/09/04 06:02:51;;;;;;;15.82;13.88;;;;;;;17.23;88.98;101685.72;5020335;28;20032;-69
2022/09/04 06:05:40;;;;;;;24.63;13.18;;;;;;;17.28;89.16;101690.59;4993219;28;20049;-69
2022/09/04 06:08:17;;;;;;;19.20;13.63;;;;;;;17.33;88.55;101686.09;5019494;28;20035;-69
2022/09/04 06:11:20;;;;;;;17.50;13.10;;;;;;;17.47;87.98;101695.22;5021770;28;20101;-69
2022/09/04 06:14:14;;;;;;;16.52;13.20;;;;;;;17.59;88.47;101704.50;5029764;28;20364;-69
2022/09/04 06:16:42;;;;;;;15.95;14.02;;;;;;;17.67;88.09;101701.50;5029522;28;20046;-69
2022/09/04 06:19:18;;;;;;;17.15;13.57;;;;;;;17.79;87.15;101702.47;5025388;28;20029;-69
2022/09/04 06:22:01;;;;;;;17.45;14.45;;;;;;;17.81;86.97;101700.31;5028943;28;20043;-68
2022/09/04 06:24:48;;;;;;;15.30;13.38;;;;;;;17.91;86.74;101692.34;5052649;28;20033;-68
2022/09/04 06:27:24;;;;;;;16.83;14.38;;;;;;;18.02;86.31;101694.41;5026150;28;20057;-68
2022/09/04 06:30:16;;;;;;;22.30;13.85;;;;;;;18.06;85.93;101703.97;5029336;28;20441;-68
2022/09/04 06:33:20;;;;;;;22.33;14.15;;;;;;;18.17;85.46;101700.47;5026021;28;20049;-68
2022/09/04 06:36:04;;;;;;;15.77;13.15;;;;;;;18.22;85.02;101700.66;5019237;28;20037;-68
2022/09/04 06:38:37;;;;;;;15.98;13.73;;;;;;;18.34;84.88;101702.50;5032082;28;20510;-68
2022/09/04 06:41:24;;;;;;;21.63;14.75;;;;;;;18.41;84.67;101699.66;5027691;28;20017;-68
2022/09/04 06:43:55;;;;;;;18.52;14.45;;;;;;;18.44;84.56;101707.53;5031858;28;20033;-68
2022/09/04 06:46:37;;;;;;;18.27;13.45;;;;;;;18.55;84.39;101707.63;5029389;28;20085;-69
2022/09/04 06:49:21;;;;;;;20.75;14.77;;;;;;;18.77;83.28;101716.38;5025199;28;20084;-68
2022/09/04 06:52:21;;;;;;;22.92;14.32;;;;;;;18.98;82.52;101710.38;5022954;28;20028;-68
2022/09/04 06:55:01;;;;;;;25.45;16.48;;;;;;;18.95;82.88;101719.19;5026705;28;20029;-68
2022/09/04 06:58:08;;;;;;;22.80;17.25;;;;;;;19.09;82.46;101720.69;5029816;28;20128;-68
2022/09/04 07:00:42;;;;;;;24.33;18.13;;;;;;;18.98;83.02;101721.47;5007320;28;20061;-68
2022/09/04 07:03:22;;;;;;;32.17;19.02;;;;;;;19.56;81.30;101728.25;5030674;28;20520;-68
2022/09/04 07:06:20;;;;;;;24.98;18.17;;;;;;;19.98;79.26;101727.22;5014050;28;20064;-68
2022/09/04 07:08:53;;;;;;;;;;;;;;;20.53;77.14;101725.91;5029709;28;20033;-68
2022/09/04 07:11:42;;;;;;;25.40;19.38;;;;;;;20.71;76.51;101728.59;5019422;28;20377;-68
2022/09/04 07:14:18;;;;;;;22.02;17.75;;;;;;;21.03;75.42;101721.56;5030818;28;20028;-68
2022/09/04 07:17:04;;;;;;;30.77;19.02;;;;;;;21.48;73.33;101733.69;5027009;28;20140;-69
2022/09/04 07:19:55;;;;;;;26.73;19.88;;;;;;;21.78;72.52;101726.81;5031576;28;20037;-69
2022/09/04 07:22:36;;;;;;;29.15;19.50;;;;;;;21.93;71.38;101731.88;5027054;28;20025;-68
2022/09/04 07:25:12;;;;;;;25.88;17.92;;;;;;;21.77;72.48;101738.25;5021355;28;20038;-68
2022/09/04 07:27:51;;;;;;;23.33;17.40;;;;;;;21.83;72.09;101740.88;5021011;28;20120;-69
2022/09/04 07:30:18;;;;;;;26.15;17.33;;;;;;;22.02;71.88;101745.16;5023329;28;20499;-69
2022/09/04 07:32:54;;;;;;;30.00;19.35;;;;;;;22.01;72.21;101739.81;5029163;28;20051;-69
2022/09/04 07:35:45;;;;;;;28.38;19.77;;;;;;;22.11;71.52;101743.66;5047789;28;20039;-68
2022/09/04 07:38:40;;;;;;;28.70;20.75;;;;;;;22.01;71.75;101750.97;5028707;28;20044;-69
2022/09/04 07:41:18;;;;;;;26.88;19.40;;;;;;;21.96;73.18;101759.25;5023840;28;20559;-69
2022/09/04 07:44:11;;;;;;;31.50;20.10;;;;;;;22.09;72.50;101759.78;5026477;28;20060;-68
2022/09/04 07:46:53;;;;;;;32.38;21.08;;;;;;;21.98;72.31;101755.13;5027803;28;20026;-68
2022/09/04 07:49:28;;;;;;;26.73;19.35;;;;;;;21.97;73.06;101760.94;5030539;28;20033;-68
2022/09/04 07:51:56;;;;;;;38.63;20.65;;;;;;;22.00;72.29;101763.25;5027959;28;20024;-69
2022/09/04 07:54:36;;;;;;;27.00;20.17;;;;;;;22.03;71.65;101769.16;5024532;28;20053;-69
2022/09/04 07:57:05;;;;;;;29.38;19.30;;;;;;;21.92;72.67;101770.06;5020043;28;20460;-68
2022/09/04 07:59:51;;;;;;;32.10;21.20;;;;;;;21.89;73.24;101783.69;5030158;28;20041;-68
2022/09/04 08:02:44;;;;;;;35.13;21.63;;;;;;;21.95;72.97;101780.75;5026508;28;20056;-68
2022/09/04 08:05:23;;;;;;;37.15;23.05;;;;;;;21.87;72.60;101781.13;5031109;28;20486;-69
2022/09/04 08:08:13;;;;;;;28.80;20.90;;;;;;;21.91;73.18;101789.84;5028362;28;20479;-69
2022/09/04 08:10:47;;;;;;;29.10;20.55;;;;;;;22.03;72.83;101791.50;5030746;28;20028;-68
2022/09/04 08:13:34;;;;;;;29.45;19.95;;;;;;;22.09;72.35;101792.47;5025743;28;20022;-70
2022/09/04 08:16:06;;;;;;;30.00;21.88;;;;;;;21.97;72.31;101794.44;5018526;28;20099;-70
2022/09/04 08:18:53;;;;;;;31.80;22.23;;;;;;;22.08;73.03;101799.97;5014327;28;20077;-70
2022/09/04 08:21:19;;;;;;;;;;;;;;;22.22;73.10;101803.31;5024365;28;20032;-68
2022/09/04 08:24:04;;;;;;;31.00;21.60;;;;;;;22.32;72.58;101803.50;5022170;28;19913;-71
2022/09/04 08:26:42;;;;;;;29.50;20.77;;;;;;;22.49;72.13;101798.81;5026067;28;20037;-69
2022/09/04 08:29:31;;;;;;;35.90;23.27;;;;;;;22.67;71.37;101801.38;5021126;28;20454;-69
2022/09/04 08:32:18;;;;;;;35.88;24.48;;;;;;;22.92;70.82;101804.56;5023230;28;20414;-69
2022/09/04 08:35:09;;;;;;;47.45;28.98;;;;;;;22.86;70.84;101806.47;5022815;28;20472;-69
2022/09/04 08:37:36;;;;;;;58.80;33.70;;;;;;;22.75;72.76;101812.13;5028165;28;20045;-69
2022/09/04 08:40:31;;;;;;;59.33;35.60;;;;;;;22.95;72.54;101806.88;5021800;28;20033;-69
2022/09/04 08:43:34;;;;;;;63.85;35.60;;;;;;;23.00;72.35;101806.97;5014310;28;20060;-69
2022/09/04 08:46:40;;;;;;;60.65;37.85;;;;;;;23.02;71.63;101808.41;5010189;28;20040;-69
2022/09/04 08:49:47;;;;;;;72.78;43.72;;;;;;;23.03;71.04;101804.50;5010446;28;20041;-69
2022/09/04 08:52:25;;;;;;;64.95;39.90;;;;;;;23.12;71.55;101816.09;5010323;28;20393;-69
2022/09/04 08:55:28;;;;;;;68.20;41.33;;;;;;;23.14;71.02;101816.66;5025396;28;20033;-69
2022/09/04 08:58:08;;;;;;;75.55;43.33;;;;;;;23.31;70.80;101811.94;5011481;28;20161;-69
2022/09/04 09:01:04;;;;;;;78.70;44.95;;;;;;;23.72;68.69;101811.38;5010414;28;20038;-69
2022/09/04 09:03:49;;;;;;;68.15;43.35;;;;;;;23.81;68.31;101815.44;5026419;28;20037;-69
2022/09/04 09:06:35;;;;;;;70.60;43.92;;;;;;;23.91;67.70;101833.22;5022883;28;20457;-69
2022/09/04 09:09:18;;;;;;;71.07;43.78;;;;;;;23.86;68.14;101829.47;5016250;28;20083;-69
2022/09/04 09:12:01;;;;;;;66.78;40.58;;;;;;;24.18;67.83;101830.47;5021477;28;20390;-69
2022/09/04 09:15:02;;;;;;;71.07;44.78;;;;;;;24.38;67.60;101837.13;5019205;28;20029;-69
2022/09/04 09:17:41;;;;;;;69.15;42.63;;;;;;;24.62;66.42;101832.94;4983603;28;20482;-69
2022/09/04 09:20:28;;;;;;;65.35;41.65;;;;;;;24.76;65.93;101836.97;5017875;28;20037;-69
2022/09/04 09:23:15;;;;;;;81.47;44.22;;;;;;;24.79;65.18;101829.97;5016107;28;20361;-69
2022/09/04 09:26:07;;;;;;;72.32;42.05;;;;;;;24.97;63.87;101835.22;5014991;28;20332;-69
2022/09/04 09:28:59;;;;;;;73.53;43.90;;;;;;;25.08;63.74;101840.59;5013183;28;20049;-69
2022/09/04 09:31:40;;;;;;;69.20;43.85;;;;;;;25.04;64.33;101845.09;5022986;28;20440;-69
2022/09/04 09:34:26;;;;;;;71.97;43.60;;;;;;;25.18;63.44;101834.25;5010427;28;20037;-69
2022/09/04 09:37:42;;;;;;;66.20;40.03;;;;;;;25.34;63.46;101833.28;5021811;28;20099;-69
2022/09/04 09:40:35;;;;;;;71.05;41.92;;;;;;;25.47;62.43;101839.25;5020202;28;20528;-69
2022/09/04 09:43:45;;;;;;;69.25;43.92;;;;;;;25.38;62.67;101835.25;5013693;28;20129;-69
2022/09/04 09:46:39;;;;;;;64.75;38.03;;;;;;;25.53;62.11;101837.31;5022009;28;20044;-69
2022/09/04 09:49:32;;;;;;;58.17;36.72;;;;;;;25.77;61.30;101830.16;5017069;28;20523;-69
2022/09/04 09:52:17;;;;;;;55.35;34.83;;;;;;;25.72;59.65;101842.19;5013087;28;20396;-69
2022/09/04 09:55:16;;;;;;;59.97;36.20;;;;;;;25.60;59.79;101844.38;5010222;28;20022;-69
2022/09/04 09:58:06;;;;;;;58.28;37.03;;;;;;;25.65;61.08;101837.91;5015500;28;20036;-71
2022/09/04 10:00:55;;;;;;;59.42;34.58;;;;;;;26.16;59.62;101831.44;5019569;28;20022;-70
2022/09/04 10:03:46;;;;;;;57.10;33.70;;;;;;;26.49;60.00;101837.44;5020754;28;20022;-69
2022/09/04 10:06:38;;;;;;;59.17;36.50;;;;;;;26.49;59.28;101843.06;5019527;28;20155;-70
2022/09/04 10:09:38;;;;;;;61.92;39.15;;;;;;;26.49;58.55;101831.81;5021662;28;20037;-70
2022/09/04 10:12:24;;;;;;;66.43;38.03;;;;;;;26.58;58.77;101837.75;5012206;28;20029;-69
2022/09/04 10:15:13;;;;;;;61.13;39.13;;;;;;;26.58;57.95;101830.16;5014603;28;20041;-70
2022/09/04 10:18:22;;;;;;;57.38;33.42;;;;;;;26.45;56.94;101832.63;5014020;28;20480;-70
2022/09/04 10:20:48;;;;;;;43.08;27.42;;;;;;;26.69;56.37;101840.31;5018861;28;20116;-70
2022/09/04 10:23:34;;;;;;;46.80;28.83;;;;;;;26.60;56.44;101836.38;5024894;28;20113;-69
2022/09/04 10:26:29;;;;;;;54.37;29.30;;;;;;;26.86;55.03;101835.25;5024222;28;20026;-70
2022/09/04 10:29:17;;;;;;;40.08;25.35;;;;;;;26.92;55.22;101836.94;5012055;28;20270;-69
2022/09/04 10:32:03;;;;;;;40.45;25.83;;;;;;;26.84;55.18;101833.84;5022316;28;20033;-70
2022/09/04 10:35:08;;;;;;;41.30;27.20;;;;;;;27.12;55.03;101841.72;5029308;28;20185;-70
2022/09/04 10:37:39;;;;;;;37.53;24.55;;;;;;;26.98;54.58;101841.44;5021930;28;20029;-69
2022/09/04 10:40:34;;;;;;;35.95;23.67;;;;;;;27.19;54.11;101843.16;5025015;28;20033;-69
2022/09/04 10:43:21;;;;;;;33.85;21.08;;;;;;;27.49;53.68;101837.50;5022896;28;20038;-70
2022/09/04 10:45:52;;;;;;;24.35;16.33;;;;;;;27.29;52.28;101845.09;5020908;28;20033;-69
2022/09/04 10:48:23;;;;;;;28.63;16.88;;;;;;;27.28;53.68;101837.78;5031811;28;20083;-69
2022/09/04 10:51:15;;;;;;;34.30;19.90;;;;;;;27.30;53.22;101850.47;5028462;28;20068;-70
2022/09/04 10:54:20;;;;;;;21.85;12.43;;;;;;;27.19;52.35;101856.38;5011741;28;20026;-70
2022/09/04 10:57:02;;;;;;;29.35;16.70;;;;;;;27.54;52.66;101845.06;5024022;28;20555;-69
2022/09/04 10:59:45;;;;;;;41.03;20.52;;;;;;;27.39;52.63;101854.41;5024613;28;20516;-70
2022/09/04 11:02:22;;;;;;;25.50;14.80;;;;;;;27.45;51.83;101853.25;5030091;28;20207;-69
2022/09/04 11:05:14;;;;;;;27.85;15.00;;;;;;;27.54;51.32;101850.69;5030876;28;20112;-70
2022/09/04 11:07:47;;;;;;;28.05;15.18;;;;;;;27.66;51.90;101854.03;5031114;28;20132;-70
2022/09/04 11:10:24;;;;;;;33.45;18.67;;;;;;;27.81;51.14;101843.63;5029356;28;20108;-70
2022/09/04 11:13:08;;;;;;;31.67;17.92;;;;;;;28.04;50.92;101851.41;5029966;28;20578;-70
2022/09/04 11:15:49;;;;;;;35.53;21.85;;;;;;;27.77;50.29;101852.88;5030059;28;20485;-70
2022/09/04 11:18:36;;;;;;;30.65;20.02;;;;;;;27.91;50.90;101846.38;5029898;28;20034;-70
2022/09/04 11:21:39;;;;;;;33.75;20.67;;;;;;;27.95;51.04;101841.84;5029266;28;20040;-70
2022/09/04 11:24:36;;;;;;;34.80;18.75;;;;;;;28.31;50.46;101842.50;5026250;28;20032;-69
2022/09/04 11:27:19;;;;;;;30.60;17.58;;;;;;;28.09;50.17;101839.25;5026224;28;20063;-70
2022/09/04 11:30:01;;;;;;;28.95;16.77;;;;;;;27.98;49.87;101840.44;5023264;28;20030;-70
2022/09/04 11:32:35;;;;;;;25.70;14.27;;;;;;;28.29;46.83;101844.78;5020667;28;20029;-70
2022/09/04 11:35:18;;;;;;;25.23;15.30;;;;;;;28.63;47.07;101840.09;5020451;28;20033;-70
2022/09/04 11:37:57;;;;;;;25.55;14.43;;;;;;;28.40;46.84;101838.84;5022584;28;20048;-70
2022/09/04 11:41:04;;;;;;;25.33;15.27;;;;;;;28.23;48.23;101843.97;5026006;28;20021;-70
2022/09/04 11:44:04;;;;;;;21.05;14.07;;;;;;;28.34;46.94;101842.78;5017572;28;20505;-70
2022/09/04 11:46:40;;;;;;;21.52;12.50;;;;;;;28.34;44.87;101841.94;5019897;28;20029;-69
2022/09/04 11:49:21;;;;;;;25.27;14.20;;;;;;;28.30;46.23;101838.03;5026269;28;20057;-69
2022/09/04 11:52:05;;;;;;;18.55;12.15;;;;;;;28.60;45.41;101849.16;5010669;28;20029;-70
2022/09/04 11:55:08;;;;;;;20.77;11.18;;;;;;;28.99;43.53;101845.22;5014498;28;20041;-70
2022/09/04 11:58:10;;;;;;;21.45;11.95;;;;;;;29.07;43.21;101846.56;5013834;28;20037;-70
2022/09/04 12:00:57;;;;;;;14.13;8.95;;;;;;;29.23;44.24;101848.94;5021890;28;20039;-69
2022/09/04 12:03:34;;;;;;;19.00;10.80;;;;;;;28.82;43.84;101841.09;5013969;28;20030;-69
2022/09/04 12:06:15;;;;;;;15.23;9.32;;;;;;;28.54;45.00;101845.50;5021630;28;20461;-70
2022/09/04 12:09:07;;;;;;;18.90;9.45;;;;;;;28.98;43.84;101842.69;5022721;28;20114;-68
2022/09/04 12:11:59;;;;;;;19.30;10.30;;;;;;;29.00;43.50;101846.91;5021883;28;20445;-68
2022/09/04 12:14:46;;;;;;;17.25;10.93;;;;;;;28.72;43.37;101850.47;5020035;28;20033;-70
2022/09/04 12:17:21;;;;;;;17.08;10.75;;;;;;;29.01;43.61;101853.34;5018593;28;20065;-70
2022/09/04 12:19:55;;;;;;;15.25;9.85;;;;;;;29.01;43.21;101845.75;5017097;28;20021;-70
2022/09/04 12:22:39;;;;;;;19.95;8.95;;;;;;;29.21;43.13;101856.88;5022794;28;20369;-70
2022/09/04 12:25:13;;;;;;;17.77;9.40;;;;;;;29.38;43.86;101853.59;5018618;28;20103;-70
2022/09/04 12:28:00;;;;;;;19.58;10.25;;;;;;;29.33;43.46;101853.63;5021133;28;20064;-70
2022/09/04 12:31:03;;;;;;;22.55;10.25;;;;;;;29.38;41.48;101860.09;5014270;28;20202;-70
2022/09/04 12:34:06;;;;;;;17.63;9.23;;;;;;;29.01;42.19;101851.41;5027847;28;20030;-70